Time;durP1;ratioP1;P1;durP2;ratioP2;P2;SDS_P1;SDS_P2;PMS_P1;PMS_P2;Temp;Humidity;BMP_temperature;BMP_pressure;BME280_temperature;BME280_humidity;BME280_pressure;Samples;Min_cycle;Max_cycle;Signal;HPM_P1;HPM_P2
2022/09/04 00:02:06;;;;;;;6.03;3.93;;;17.10;99.90;;;;;;5071965;28;20978;-75
2022/09/04 00:05:01;;;;;;;5.53;3.47;;;17.00;99.90;;;;;;5067608;28;20453;-75
2022/09/04 00:08:03;;;;;;;6.70;3.73;;;17.00;99.90;;;;;;5070060;28;21132;-75
2022/09/04 00:10:56;;;;;;;4.20;3.63;;;17.00;99.90;;;;;;5067142;28;20971;-75
2022/09/04 00:13:46;;;;;;;3.80;3.40;;;16.90;99.90;;;;;;5064340;28;20592;-75
2022/09/04 00:16:41;;;;;;;7.80;3.37;;;16.90;99.90;;;;;;5070197;28;20951;-75
2022/09/04 00:19:34;;;;;;;4.50;3.80;;;16.90;99.90;;;;;;5066169;28;21218;-75
2022/09/04 00:22:29;;;;;;;6.30;3.13;;;16.80;99.90;;;;;;5063264;28;21034;-75
2022/09/04 00:25:21;;;;;;;6.33;3.60;;;16.70;99.90;;;;;;5057436;22;20491;-70
2022/09/04 00:28:12;;;;;;;4.97;3.67;;;16.60;99.90;;;;;;5024700;28;20488;-69
2022/09/04 00:31:07;;;;;;;7.07;4.30;;;16.60;99.90;;;;;;5030981;28;20443;-70
2022/09/04 00:34:06;;;;;;;4.00;3.60;;;16.70;99.90;;;;;;5022841;28;20590;-71
2022/09/04 00:36:57;;;;;;;3.90;3.23;;;16.80;99.90;;;;;;5027086;28;20464;-69
2022/09/04 00:39:48;;;;;;;3.80;3.10;;;16.90;99.90;;;;;;5027959;28;20678;-69
2022/09/04 00:42:47;;;;;;;5.13;3.60;;;16.90;99.90;;;;;;5029008;28;20454;-70
2022/09/04 00:45:47;;;;;;;4.00;3.40;;;17.00;99.90;;;;;;5026706;28;20438;-70
2022/09/04 00:49:06;;;;;;;4.73;3.63;;;16.90;99.90;;;;;;5027474;28;20586;-70
2022/09/04 00:52:00;;;;;;;5.60;3.10;;;16.90;99.90;;;;;;5034915;28;20438;-70
2022/09/04 00:55:07;;;;;;;11.40;3.80;;;16.80;99.90;;;;;;5023660;28;20464;-69
2022/09/04 00:58:11;;;;;;;4.93;3.10;;;16.80;99.90;;;;;;5027291;28;20439;-71
2022/09/04 01:00:59;;;;;;;3.90;3.23;;;16.80;99.90;;;;;;5028755;28;20954;-70
2022/09/04 01:03:58;;;;;;;5.13;3.00;;;16.80;99.90;;;;;;5028098;28;20478;-69
2022/09/04 01:06:53;;;;;;;5.30;3.50;;;16.80;99.90;;;;;;5026651;28;20444;-70
2022/09/04 01:10:08;;;;;;;6.03;3.80;;;16.70;99.90;;;;;;5027484;28;20874;-70
2022/09/04 01:13:01;;;;;;;5.30;4.67;;;16.40;99.90;;;;;;5026671;28;20618;-70
2022/09/04 01:15:55;;;;;;;3.70;3.27;;;16.20;99.90;;;;;;5031558;28;20450;-69
2022/09/04 01:18:47;;;;;;;8.93;3.97;;;16.10;99.90;;;;;;5028102;28;20456;-69
2022/09/04 01:21:59;;;;;;;4.80;3.90;;;16.00;99.90;;;;;;5028528;28;20462;-69
2022/09/04 01:25:09;;;;;;;4.60;3.77;;;15.90;99.90;;;;;;5029194;28;20826;-70
2022/09/04 01:28:04;;;;;;;5.13;4.13;;;16.00;99.90;;;;;;5029844;28;21006;-70
2022/09/04 01:30:57;;;;;;;5.47;3.63;;;16.10;99.90;;;;;;5027741;28;20981;-70
2022/09/04 01:33:52;;;;;;;3.67;3.37;;;16.20;99.90;;;;;;5028844;28;20805;-69
2022/09/04 01:36:45;;;;;;;5.27;3.70;;;16.40;99.90;;;;;;5032263;28;20974;-69
2022/09/04 01:39:34;;;;;;;7.47;3.23;;;16.50;99.90;;;;;;5029380;28;20427;-70
2022/09/04 01:42:28;;;;;;;4.10;3.50;;;16.50;99.90;;;;;;5026144;28;20446;-70
2022/09/04 01:45:25;;;;;;;4.60;3.57;;;16.40;99.90;;;;;;5033164;28;21188;-70
2022/09/04 01:48:13;;;;;;;4.70;3.90;;;16.40;99.90;;;;;;5030049;28;20500;-70
2022/09/04 01:51:04;;;;;;;6.50;3.97;;;16.30;99.90;;;;;;5032713;28;20855;-70
2022/09/04 01:54:02;;;;;;;4.70;3.70;;;16.30;99.90;;;;;;5020647;28;20967;-70
2022/09/04 01:56:56;;;;;;;4.60;3.50;;;16.20;99.90;;;;;;5034409;28;20830;-70
2022/09/04 01:59:54;;;;;;;4.63;4.17;;;16.30;99.90;;;;;;5024581;28;20419;-69
2022/09/04 02:03:01;;;;;;;6.93;4.60;;;16.30;99.90;;;;;;5027916;28;20480;-70
2022/09/04 02:05:59;;;;;;;4.53;3.50;;;16.40;99.90;;;;;;5033780;28;20476;-70
2022/09/04 02:08:58;;;;;;;10.23;3.90;;;16.40;99.90;;;;;;5035193;28;20427;-70
2022/09/04 02:11:52;;;;;;;3.57;3.23;;;16.30;99.90;;;;;;5030396;28;20479;-69
2022/09/04 02:14:48;;;;;;;4.03;3.63;;;16.20;99.90;;;;;;5026214;28;20529;-70
2022/09/04 02:17:42;;;;;;;5.23;3.80;;;16.20;99.90;;;;;;5029678;28;20452;-70
2022/09/04 02:20:30;;;;;;;6.10;3.60;;;16.10;99.90;;;;;;5024569;28;20915;-69
2022/09/04 02:23:25;;;;;;;4.00;3.30;;;16.10;99.90;;;;;;5025300;28;20464;-70
2022/09/04 02:26:17;;;;;;;4.43;3.70;;;16.00;99.90;;;;;;5029010;28;20539;-69
2022/09/04 02:29:12;;;;;;;3.90;3.50;;;15.90;99.90;;;;;;5028292;28;20476;-69
2022/09/04 02:32:03;;;;;;;4.00;3.60;;;15.90;99.90;;;;;;5031504;28;20575;-69
2022/09/04 02:34:57;;;;;;;4.80;3.50;;;16.00;99.90;;;;;;5032491;28;20484;-69
2022/09/04 02:37:59;;;;;;;12.10;4.97;;;15.90;99.90;;;;;;5034204;28;20447;-69
2022/09/04 02:40:51;;;;;;;4.40;3.80;;;15.80;99.90;;;;;;5029816;28;20946;-70
2022/09/04 02:43:53;;;;;;;4.23;3.17;;;15.80;99.90;;;;;;5023582;28;20443;-69
2022/09/04 02:46:49;;;;;;;4.47;3.23;;;15.80;99.90;;;;;;5030400;28;20998;-70
2022/09/04 02:49:47;;;;;;;4.07;3.17;;;15.80;99.90;;;;;;5024395;28;20984;-69
2022/09/04 02:52:47;;;;;;;5.07;3.77;;;15.90;99.90;;;;;;5024301;28;20481;-70
2022/09/04 02:55:52;;;;;;;4.33;3.43;;;16.00;99.90;;;;;;5029851;28;20453;-69
2022/09/04 02:58:50;;;;;;;5.10;3.63;;;15.90;99.90;;;;;;5029503;28;21714;-69
2022/09/04 03:01:44;;;;;;;4.30;3.87;;;15.80;99.90;;;;;;5025076;28;21000;-70
2022/09/04 03:04:38;;;;;;;4.27;3.10;;;15.90;99.90;;;;;;5025613;28;20472;-69
2022/09/04 03:07:31;;;;;;;4.40;3.83;;;15.90;99.90;;;;;;5031424;28;20487;-70
2022/09/04 03:10:19;;;;;;;4.00;3.60;;;15.80;99.90;;;;;;5033641;28;20512;-71
2022/09/04 03:13:14;;;;;;;5.73;3.63;;;15.80;99.90;;;;;;5022252;28;21059;-70
2022/09/04 03:16:06;;;;;;;5.80;4.40;;;15.80;99.90;;;;;;5027020;28;20574;-70
2022/09/04 03:19:06;;;;;;;5.43;4.37;;;15.80;99.90;;;;;;5030849;28;20445;-69
2022/09/04 03:21:56;;;;;;;4.40;3.67;;;15.70;99.90;;;;;;5020426;28;20586;-69
2022/09/04 03:24:59;;;;;;;3.43;3.03;;;15.60;99.90;;;;;;5028465;28;21087;-70
2022/09/04 03:27:46;;;;;;;4.47;4.07;;;15.50;99.90;;;;;;5030160;28;20965;-70
2022/09/04 03:30:37;;;;;;;4.40;3.87;;;15.50;99.90;;;;;;5024424;28;20412;-69
2022/09/04 03:33:30;;;;;;;7.10;4.70;;;15.50;99.90;;;;;;5028066;28;20452;-69
2022/09/04 03:36:26;;;;;;;4.90;3.40;;;15.60;99.90;;;;;;5029603;28;20445;-71
2022/09/04 03:39:22;;;;;;;5.00;3.30;;;15.60;99.90;;;;;;5033231;28;20423;-70
2022/09/04 03:42:17;;;;;;;4.90;3.90;;;15.70;99.90;;;;;;5027457;28;20520;-70
2022/09/04 03:45:16;;;;;;;5.87;4.70;;;15.80;99.90;;;;;;5026635;28;20475;-70
2022/09/04 03:48:16;;;;;;;5.97;3.90;;;15.90;99.90;;;;;;5022431;28;20456;-71
2022/09/04 03:51:12;;;;;;;4.20;3.70;;;16.00;99.90;;;;;;5024729;28;20491;-70
2022/09/04 03:54:06;;;;;;;5.43;4.30;;;16.10;99.90;;;;;;5029206;28;20983;-70
2022/09/04 03:57:05;;;;;;;4.63;4.13;;;16.20;99.90;;;;;;5032579;28;20453;-71
2022/09/04 04:00:05;;;;;;;5.30;4.60;;;16.20;99.90;;;;;;5030634;28;20918;-70
2022/09/04 04:03:21;;;;;;;8.13;5.50;;;16.20;99.90;;;;;;5022405;28;20465;-70
2022/09/04 04:06:18;;;;;;;12.83;7.13;;;16.30;99.90;;;;;;5025878;28;21035;-69
2022/09/04 04:09:36;;;;;;;9.37;7.60;;;16.40;99.90;;;;;;5031283;28;20435;-69
2022/09/04 04:12:45;;;;;;;9.10;7.43;;;16.30;99.90;;;;;;5025572;28;20427;-70
2022/09/04 04:15:51;;;;;;;9.37;8.07;;;16.40;99.90;;;;;;5030170;28;20434;-69
2022/09/04 04:19:10;;;;;;;9.53;7.80;;;16.40;99.90;;;;;;5030159;28;20451;-69
2022/09/04 04:22:11;;;;;;;11.43;7.43;;;16.50;99.90;;;;;;5017693;28;20434;-69
2022/09/04 04:25:15;;;;;;;10.80;8.40;;;16.40;99.90;;;;;;5025261;28;20520;-69
2022/09/04 04:28:18;;;;;;;9.07;7.00;;;16.30;99.90;;;;;;5025744;28;20447;-70
2022/09/04 04:31:14;;;;;;;9.60;7.50;;;16.20;99.90;;;;;;5025282;28;20934;-69
2022/09/04 04:34:10;;;;;;;11.07;7.60;;;16.00;99.90;;;;;;5023474;28;20442;-69
2022/09/04 04:37:04;;;;;;;8.00;6.87;;;16.00;99.90;;;;;;5029906;28;20418;-72
2022/09/04 04:39:57;;;;;;;9.87;7.10;;;15.90;99.90;;;;;;5027893;28;20424;-70
2022/09/04 04:42:52;;;;;;;8.63;7.60;;;15.90;99.90;;;;;;5026737;28;20419;-69
2022/09/04 04:45:49;;;;;;;9.43;7.17;;;15.80;99.90;;;;;;5025973;28;20464;-69
2022/09/04 04:49:06;;;;;;;8.73;6.80;;;15.60;99.90;;;;;;5032581;28;20426;-70
2022/09/04 04:52:20;;;;;;;9.80;6.73;;;15.30;99.90;;;;;;5023629;28;20444;-69
2022/09/04 04:55:20;;;;;;;8.60;6.10;;;15.50;99.90;;;;;;5037655;28;20435;-69
2022/09/04 04:58:28;;;;;;;7.30;5.70;;;15.50;99.90;;;;;;5027401;28;20812;-70
2022/09/04 05:01:24;;;;;;;9.10;6.80;;;15.60;99.90;;;;;;5023775;28;20571;-69
2022/09/04 05:04:17;;;;;;;6.80;6.10;;;15.60;99.90;;;;;;5031838;28;21034;-69
2022/09/04 05:07:13;;;;;;;6.60;5.90;;;15.70;99.90;;;;;;5028454;28;20451;-70
2022/09/04 05:10:05;;;;;;;7.00;5.30;;;15.80;99.90;;;;;;5037475;28;20578;-71
2022/09/04 05:13:01;;;;;;;16.07;6.37;;;15.70;99.90;;;;;;5034516;28;20820;-69
2022/09/04 05:15:54;;;;;;;5.67;4.60;;;15.70;99.90;;;;;;5026864;28;20456;-69
2022/09/04 05:18:49;;;;;;;8.93;5.23;;;15.70;99.90;;;;;;5033090;28;20939;-69
2022/09/04 05:21:40;;;;;;;9.90;5.40;;;15.90;99.90;;;;;;5026701;28;20496;-70
2022/09/04 05:24:35;;;;;;;6.00;5.10;;;16.00;99.90;;;;;;5023980;28;20991;-70
2022/09/04 05:27:38;;;;;;;5.80;5.23;;;16.00;99.90;;;;;;5029556;28;20679;-69
2022/09/04 05:30:40;;;;;;;5.90;5.30;;;16.10;99.90;;;;;;5024987;28;20460;-69
2022/09/04 05:33:34;;;;;;;5.57;4.97;;;16.10;99.90;;;;;;5040655;28;20826;-69
2022/09/04 05:36:26;;;;;;;6.90;4.67;;;16.30;99.90;;;;;;5028621;28;20557;-71
2022/09/04 05:39:21;;;;;;;5.30;4.73;;;16.30;99.90;;;;;;5034207;28;20967;-70
2022/09/04 05:42:36;;;;;;;5.70;5.10;;;16.30;99.90;;;;;;5030684;28;20430;-70
2022/09/04 05:45:28;;;;;;;6.80;6.00;;;16.30;99.90;;;;;;5032477;28;20457;-70
2022/09/04 05:48:21;;;;;;;6.43;5.47;;;16.30;99.90;;;;;;5028575;28;20816;-71
2022/09/04 05:52:04;;;;;;;8.67;6.07;;;16.40;99.90;;;;;;5027614;28;20445;-70
2022/09/04 05:55:15;;;;;;;6.23;5.57;;;16.50;99.90;;;;;;4963855;28;20585;-70
2022/09/04 05:58:27;;;;;;;9.40;5.70;;;16.60;99.90;;;;;;4968217;28;20427;-69
2022/09/04 06:01:30;;;;;;;9.00;6.57;;;16.70;99.90;;;;;;5024372;28;20953;-70
2022/09/04 06:04:42;;;;;;;6.50;5.60;;;16.70;99.90;;;;;;5028427;28;20829;-69
2022/09/04 06:07:37;;;;;;;9.87;5.83;;;16.70;99.90;;;;;;5033464;28;20456;-69
2022/09/04 06:10:30;;;;;;;6.37;5.57;;;16.70;99.90;;;;;;5026169;28;20461;-71
2022/09/04 06:13:31;;;;;;;8.77;5.93;;;16.80;99.90;;;;;;5035149;28;20447;-69
2022/09/04 06:16:39;;;;;;;6.10;5.43;;;16.80;99.90;;;;;;5030815;28;20816;-69
2022/09/04 06:19:47;;;;;;;7.33;5.90;;;16.80;99.90;;;;;;5021064;28;20490;-70
2022/09/04 06:22:48;;;;;;;7.30;5.87;;;16.90;99.90;;;;;;5027311;28;20957;-69
2022/09/04 06:25:58;;;;;;;9.13;6.00;;;17.00;99.90;;;;;;5064427;22;20471;-76
2022/09/04 06:29:22;;;;;;;7.77;5.73;;;17.10;99.90;;;;;;5068532;28;20597;-74
2022/09/04 06:32:40;;;;;;;6.90;5.70;;;17.10;99.90;;;;;;5075572;28;20808;-75
2022/09/04 06:36:00;;;;;;;6.83;6.10;;;17.20;99.90;;;;;;5058732;28;20988;-76
2022/09/04 06:39:06;;;;;;;7.07;5.77;;;17.20;99.90;;;;;;5051660;28;20586;-74
2022/09/04 06:42:20;;;;;;;7.17;6.43;;;17.40;99.90;;;;;;5053165;28;20422;-76
2022/09/04 06:45:20;;;;;;;7.03;5.57;;;17.40;99.90;;;;;;5051085;28;20453;-75
2022/09/04 06:48:15;;;;;;;5.40;4.90;;;17.50;99.90;;;;;;5055171;28;20525;-75
2022/09/04 06:51:08;;;;;;;7.00;5.87;;;17.40;99.90;;;;;;5049497;28;20435;-76
2022/09/04 06:54:07;;;;;;;6.10;5.10;;;17.50;99.90;;;;;;5056315;28;20936;-76
2022/09/04 06:57:19;;;;;;;8.70;5.47;;;17.70;99.90;;;;;;5051439;28;20446;-76
2022/09/04 07:00:08;;;;;;;5.47;4.90;;;17.80;99.90;;;;;;5047179;28;20496;-76
2022/09/04 07:03:19;;;;;;;6.70;5.37;;;17.90;99.90;;;;;;5056583;28;20795;-76
2022/09/04 07:06:11;;;;;;;5.53;4.90;;;17.90;99.90;;;;;;5050359;28;20990;-76
2022/09/04 07:09:06;;;;;;;5.93;4.80;;;18.00;99.90;;;;;;5049303;28;20525;-76
2022/09/04 07:12:13;;;;;;;5.70;4.40;;;18.10;99.90;;;;;;5051009;28;20417;-76
2022/09/04 07:15:43;;;;;;;4.73;4.23;;;18.30;99.90;;;;;;5049626;28;20476;-76
2022/09/04 07:18:47;;;;;;;5.90;4.20;;;18.40;99.90;;;;;;5049757;28;21099;-76
2022/09/04 07:21:42;;;;;;;7.63;4.30;;;18.50;99.90;;;;;;5047425;28;20451;-76
2022/09/04 07:25:01;;;;;;;5.97;4.93;;;18.70;99.90;;;;;;5053945;28;20816;-76
2022/09/04 07:28:07;;;;;;;6.23;4.70;;;18.70;99.90;;;;;;5054448;28;20435;-76
2022/09/04 07:31:02;;;;;;;4.70;4.13;;;18.80;99.90;;;;;;5053332;28;20441;-75
2022/09/04 07:33:56;;;;;;;5.87;4.20;;;19.00;99.90;;;;;;5049435;28;20451;-76
2022/09/04 07:36:49;;;;;;;7.20;4.90;;;19.10;99.90;;;;;;5050767;28;20444;-76
2022/09/04 07:39:39;;;;;;;6.00;4.07;;;19.20;99.90;;;;;;5047074;28;20807;-76
2022/09/04 07:42:31;;;;;;;5.03;3.70;;;19.30;99.90;;;;;;5043012;28;20490;-76
2022/09/04 07:45:29;;;;;;;6.17;4.27;;;19.40;99.90;;;;;;5049496;28;20479;-76
2022/09/04 07:48:23;;;;;;;6.30;4.30;;;19.50;99.90;;;;;;5049534;28;20930;-76
2022/09/04 07:51:13;;;;;;;6.47;3.90;;;19.60;99.90;;;;;;5049456;28;20426;-76
2022/09/04 07:54:18;;;;;;;4.77;4.27;;;19.70;99.90;;;;;;5053665;28;20422;-76
2022/09/04 07:57:24;;;;;;;5.23;3.90;;;19.80;99.90;;;;;;5050107;28;20463;-76
2022/09/04 08:00:16;;;;;;;4.23;2.83;;;20.00;99.90;;;;;;5046774;28;20472;-75
2022/09/04 08:03:28;;;;;;;4.93;3.50;;;20.10;99.90;;;;;;5047875;28;21080;-75
2022/09/04 08:06:19;;;;;;;6.87;3.90;;;20.20;99.90;;;;;;5048710;28;20589;-77
2022/09/04 08:09:38;;;;;;;4.97;4.00;;;20.40;99.90;;;;;;5056573;28;21053;-76
2022/09/04 08:12:48;;;;;;;6.57;4.67;;;20.50;99.90;;;;;;5041364;28;20456;-76
2022/09/04 08:15:42;;;;;;;7.93;3.57;;;20.60;99.90;;;;;;5046863;28;20514;-76
2022/09/04 08:19:00;;;;;;;3.80;3.23;;;20.70;99.90;;;;;;5050800;28;20517;-76
2022/09/04 08:21:48;;;;;;;6.73;5.40;;;20.80;99.90;;;;;;5047951;28;20450;-76
2022/09/04 08:25:00;;;;;;;7.23;5.07;;;20.80;99.90;;;;;;5047284;28;20472;-76
2022/09/04 08:28:16;;;;;;;6.63;4.60;;;20.90;99.90;;;;;;5048824;28;20589;-75
2022/09/04 08:31:11;;;;;;;7.40;5.70;;;21.00;99.90;;;;;;5046697;28;20934;-75
2022/09/04 08:34:12;;;;;;;6.07;5.37;;;21.10;99.90;;;;;;5053064;28;20460;-76
2022/09/04 08:37:13;;;;;;;6.47;5.60;;;21.20;99.90;;;;;;5052062;28;20447;-76
2022/09/04 08:40:31;;;;;;;12.53;6.00;;;21.30;99.90;;;;;;5049569;28;20475;-77
2022/09/04 08:43:38;;;;;;;6.63;5.90;;;21.20;99.90;;;;;;5048916;28;20480;-76
2022/09/04 08:46:51;;;;;;;8.80;6.43;;;21.20;99.90;;;;;;5046547;28;20486;-76
2022/09/04 08:50:17;;;;;;;9.57;5.70;;;21.20;99.90;;;;;;5050687;28;20576;-76
2022/09/04 08:53:37;;;;;;;9.03;6.40;;;21.30;99.90;;;;;;5016201;28;20442;-76
2022/09/04 08:56:29;;;;;;;7.73;6.07;;;21.50;99.90;;;;;;5049619;28;20471;-76
2022/09/04 08:59:57;;;;;;;6.67;5.27;;;21.60;99.90;;;;;;5056256;28;20457;-76
2022/09/04 09:03:17;;;;;;;6.93;5.70;;;21.70;99.90;;;;;;5030695;28;20458;-76
2022/09/04 09:06:35;;;;;;;5.53;4.83;;;21.80;99.90;;;;;;5053768;28;20613;-76
2022/09/04 09:09:54;;;;;;;8.33;6.13;;;21.90;99.90;;;;;;5027769;28;20846;-74
2022/09/04 09:13:25;;;;;;;11.00;5.10;;;22.00;99.90;;;;;;5033767;28;20536;-77
2022/09/04 09:16:22;;;;;;;6.90;5.00;;;22.00;99.90;;;;;;5054149;28;20458;-75
2022/09/04 09:19:28;;;;;;;4.93;4.00;;;22.10;99.90;;;;;;5049257;28;20455;-75
2022/09/04 09:22:37;;;;;;;7.67;5.27;;;22.10;99.90;;;;;;5042596;28;20803;-76
2022/09/04 09:25:27;;;;;;;8.07;4.67;;;22.20;99.90;;;;;;5046503;28;20483;-76
2022/09/04 09:28:47;;;;;;;4.23;3.13;;;22.30;99.90;;;;;;5046119;28;20456;-75
2022/09/04 09:32:02;;;;;;;6.60;4.70;;;22.40;99.90;;;;;;5048117;28;21023;-76
2022/09/04 09:35:24;;;;;;;5.77;3.70;;;22.60;99.90;;;;;;5056073;28;20942;-76
2022/09/04 09:38:40;;;;;;;5.43;3.73;;;22.80;99.90;;;;;;5052397;28;20496;-76
2022/09/04 09:41:59;;;;;;;7.67;5.13;;;22.80;99.90;;;;;;5047176;28;20446;-76
2022/09/04 09:45:29;;;;;;;6.67;4.00;;;22.80;99.90;;;;;;5055173;28;20467;-75
2022/09/04 09:49:06;;;;;;;9.40;4.17;;;22.80;99.90;;;;;;5053579;28;21431;-76
2022/09/04 09:52:41;;;;;;;9.67;4.40;;;22.90;99.90;;;;;;5005366;28;20820;-76
2022/09/04 09:56:02;;;;;;;8.90;3.43;;;23.00;99.90;;;;;;5047026;28;20464;-76
2022/09/04 09:59:21;;;;;;;6.43;3.43;;;23.10;99.90;;;;;;5054866;28;20443;-76
2022/09/04 10:02:33;;;;;;;9.10;3.57;;;23.20;99.90;;;;;;5035623;28;20539;-76
2022/09/04 10:05:44;;;;;;;5.63;3.37;;;23.30;99.90;;;;;;5035427;28;20822;-76
2022/09/04 10:09:08;;;;;;;6.83;2.90;;;23.30;99.90;;;;;;5053905;28;21126;-76
2022/09/04 10:12:27;;;;;;;5.93;3.40;;;23.30;99.90;;;;;;5055974;28;20459;-75
2022/09/04 10:15:56;;;;;;;5.00;3.63;;;23.30;99.90;;;;;;5053305;28;20476;-76
2022/09/04 10:19:23;;;;;;;5.53;4.10;;;23.40;98.60;;;;;;5063058;28;20498;-76
2022/09/04 10:22:34;;;;;;;3.97;2.83;;;23.50;97.10;;;;;;5050462;28;22334;-76
2022/09/04 10:25:49;;;;;;;4.80;3.40;;;23.60;95.10;;;;;;5052264;28;20490;-76
2022/09/04 10:29:13;;;;;;;7.00;3.07;;;23.60;93.60;;;;;;5051436;28;20435;-76
2022/09/04 10:32:35;;;;;;;6.00;3.70;;;23.90;93.70;;;;;;5051545;28;20427;-75
2022/09/04 10:35:24;;;;;;;8.00;3.20;;;24.00;90.20;;;;;;5044811;28;20447;-76
2022/09/04 10:38:28;;;;;;;4.77;3.17;;;23.90;90.30;;;;;;5051735;28;20792;-76
2022/09/04 10:41:45;;;;;;;4.50;2.80;;;24.10;90.90;;;;;;5056002;28;20436;-76
2022/09/04 10:44:44;;;;;;;3.17;2.40;;;24.40;91.50;;;;;;5052320;28;20544;-76
2022/09/04 10:48:06;;;;;;;4.47;3.30;;;24.50;85.70;;;;;;5052060;28;20991;-76
2022/09/04 10:51:18;;;;;;;5.50;3.20;;;24.70;76.60;;;;;;5052610;28;20431;-75
2022/09/04 10:54:35;;;;;;;3.43;2.43;;;24.80;79.10;;;;;;5045029;28;20842;-76
2022/09/04 10:57:40;;;;;;;5.00;2.40;;;24.90;78.60;;;;;;5054120;28;20510;-76
2022/09/04 11:00:31;;;;;;;5.63;3.20;;;24.70;80.00;;;;;;5051685;28;20446;-76
2022/09/04 11:03:43;;;;;;;5.50;3.00;;;24.50;74.80;;;;;;5049102;28;20999;-76
2022/09/04 11:06:58;;;;;;;4.70;3.40;;;24.60;74.30;;;;;;5048066;28;20499;-76
2022/09/04 11:10:06;;;;;;;6.70;3.20;;;24.70;76.10;;;;;;5055652;28;20451;-74
2022/09/04 11:13:25;;;;;;;5.47;3.17;;;24.90;74.00;;;;;;5047523;28;20804;-75
2022/09/04 11:16:34;;;;;;;4.70;3.10;;;25.00;73.90;;;;;;5050597;28;20459;-76
2022/09/04 11:19:55;;;;;;;5.17;2.67;;;25.10;71.10;;;;;;5047121;28;20451;-75
2022/09/04 11:23:23;;;;;;;4.80;2.73;;;25.10;70.40;;;;;;5041533;28;20448;-76
2022/09/04 11:26:32;;;;;;;4.60;3.10;;;25.30;70.50;;;;;;5047685;28;21004;-76
2022/09/04 11:29:40;;;;;;;8.60;3.30;;;25.40;68.90;;;;;;5050079;28;21048;-76
2022/09/04 11:33:14;;;;;;;4.20;2.83;;;25.10;67.40;;;;;;5042558;28;20445;-75
2022/09/04 11:36:28;;;;;;;4.00;3.10;;;24.90;69.30;;;;;;5038375;28;20467;-75
2022/09/04 11:39:48;;;;;;;4.10;2.93;;;24.60;69.90;;;;;;5027623;28;20821;-76
2022/09/04 11:42:59;;;;;;;4.37;2.93;;;24.40;70.00;;;;;;5047127;28;20569;-76
2022/09/04 11:46:26;;;;;;;4.00;3.20;;;24.10;72.60;;;;;;5052033;28;20467;-75
2022/09/04 11:49:30;;;;;;;4.67;2.93;;;24.20;75.80;;;;;;5049383;28;20435;-75
2022/09/04 11:52:25;;;;;;;5.23;2.87;;;24.30;71.40;;;;;;5042776;28;20513;-75
2022/09/04 11:55:43;;;;;;;4.43;2.87;;;24.50;70.90;;;;;;5051453;28;20506;-75
2022/09/04 11:59:03;;;;;;;11.77;2.90;;;24.70;70.70;;;;;;5047913;28;20833;-75
2022/09/04 12:02:22;;;;;;;3.90;2.77;;;24.50;70.40;;;;;;5045402;28;20495;-75
2022/09/04 12:05:19;;;;;;;10.20;2.80;;;24.40;70.30;;;;;;5060629;28;20447;-75
2022/09/04 12:08:18;;;;;;;4.43;2.70;;;24.30;71.80;;;;;;5059826;28;20478;-75
2022/09/04 12:11:41;;;;;;;3.73;3.23;;;24.10;68.60;;;;;;5052165;28;20525;-75
2022/09/04 12:14:57;;;;;;;6.80;3.10;;;24.10;69.10;;;;;;5049819;28;20453;-75
2022/09/04 12:18:16;;;;;;;4.23;3.17;;;24.10;69.60;;;;;;5049714;28;20442;-75
2022/09/04 12:21:36;;;;;;;4.20;3.17;;;24.30;68.40;;;;;;5044698;28;20805;-75
2022/09/04 12:25:11;;;;;;;4.70;3.23;;;24.30;67.60;;;;;;5046942;28;20550;-75
2022/09/04 12:28:25;;;;;;;4.87;2.97;;;24.50;68.60;;;;;;5071939;22;20626;-72
2022/09/04 12:31:39;;;;;;;4.00;3.00;;;24.80;62.30;;;;;;5047963;28;20578;-71
2022/09/04 12:34:53;;;;;;;4.17;3.17;;;25.30;64.40;;;;;;5055192;28;20419;-71
2022/09/04 12:38:10;;;;;;;5.30;2.90;;;25.60;51.60;;;;;;5045968;28;20521;-71
2022/09/04 12:41:04;;;;;;;7.90;3.20;;;25.90;51.80;;;;;;5042271;28;22611;-71
2022/09/04 12:44:02;;;;;;;4.53;3.20;;;26.20;48.20;;;;;;5044543;28;20895;-72
2022/09/04 12:47:08;;;;;;;5.00;3.10;;;26.50;49.10;;;;;;5051376;28;20847;-72
2022/09/04 12:50:15;;;;;;;3.57;2.63;;;26.80;49.10;;;;;;5044757;28;20554;-73
2022/09/04 12:53:24;;;;;;;3.67;2.43;;;27.00;45.50;;;;;;5047250;28;20521;-73
2022/09/04 12:56:16;;;;;;;3.37;2.37;;;27.20;42.60;;;;;;5044533;28;20785;-73
2022/09/04 12:59:17;;;;;;;3.80;2.40;;;27.40;43.10;;;;;;5047692;28;20427;-73
2022/09/04 13:02:13;;;;;;;3.20;2.20;;;27.40;38.50;;;;;;5039980;28;20451;-73
2022/09/04 13:05:18;;;;;;;3.40;1.90;;;27.60;38.30;;;;;;5050157;28;20475;-73
2022/09/04 13:08:17;;;;;;;2.80;2.03;;;27.80;35.90;;;;;;5048413;28;20983;-73
2022/09/04 13:11:17;;;;;;;3.10;1.97;;;27.90;35.30;;;;;;5049076;28;20443;-73
2022/09/04 13:14:19;;;;;;;4.23;2.40;;;28.00;33.30;;;;;;5048693;28;20518;-73
2022/09/04 13:17:17;;;;;;;3.97;2.40;;;28.10;33.10;;;;;;5051550;28;20442;-73
2022/09/04 13:20:11;;;;;;;4.20;2.67;;;28.30;35.10;;;;;;5053394;28;20440;-73
2022/09/04 13:23:12;;;;;;;3.93;2.40;;;28.40;33.30;;;;;;5049607;28;20482;-73
2022/09/04 13:26:19;;;;;;;6.03;2.17;;;28.70;33.30;;;;;;5045557;28;20575;-73
2022/09/04 13:29:14;;;;;;;4.53;2.47;;;28.90;29.40;;;;;;5050214;28;20509;-72
2022/09/04 13:32:22;;;;;;;4.17;2.03;;;28.60;29.70;;;;;;5048094;28;20548;-73
2022/09/04 13:35:14;;;;;;;3.60;2.17;;;28.80;31.40;;;;;;5051257;28;20796;-71
2022/09/04 13:38:33;;;;;;;3.60;2.30;;;28.60;31.90;;;;;;5050271;28;20448;-70
2022/09/04 13:41:46;;;;;;;4.90;2.23;;;28.10;33.10;;;;;;5042487;28;20463;-73
2022/09/04 13:45:04;;;;;;;4.00;2.40;;;27.60;33.40;;;;;;5045797;28;20554;-73
2022/09/04 13:47:56;;;;;;;3.27;1.80;;;27.20;35.80;;;;;;5045041;28;20525;-73
2022/09/04 13:50:46;;;;;;;4.73;2.30;;;26.80;34.70;;;;;;5045680;28;20459;-73
2022/09/04 13:53:40;;;;;;;3.20;2.13;;;26.60;38.20;;;;;;5051198;28;20797;-73
2022/09/04 13:56:34;;;;;;;4.00;2.60;;;26.40;36.50;;;;;;5048602;28;20447;-73
2022/09/04 13:59:22;;;;;;;3.07;2.13;;;26.80;35.60;;;;;;5047978;28;20991;-73
2022/09/04 14:02:13;;;;;;;4.67;2.03;;;27.20;34.00;;;;;;5042261;28;20439;-73
2022/09/04 14:05:05;;;;;;;2.73;1.80;;;27.50;32.60;;;;;;5054628;28;20419;-73
2022/09/04 14:07:58;;;;;;;3.80;2.30;;;27.70;31.70;;;;;;5049199;28;20840;-73
2022/09/04 14:11:19;;;;;;;3.40;2.30;;;28.00;30.30;;;;;;5050770;28;20514;-73
2022/09/04 14:14:44;;;;;;;4.27;2.17;;;28.30;31.40;;;;;;5043590;28;20423;-73
2022/09/04 14:17:36;;;;;;;4.20;2.23;;;28.50;29.10;;;;;;5046574;28;20439;-73
2022/09/04 14:20:27;;;;;;;2.27;1.53;;;28.70;28.10;;;;;;5044608;28;20447;-73
2022/09/04 14:23:19;;;;;;;3.37;2.27;;;28.60;28.50;;;;;;5049338;28;20412;-73
2022/09/04 14:26:12;;;;;;;3.47;2.17;;;28.50;29.40;;;;;;5049190;28;20517;-73
2022/09/04 14:29:04;;;;;;;3.03;2.20;;;28.70;30.00;;;;;;5046423;28;20554;-73
2022/09/04 14:32:01;;;;;;;4.30;2.33;;;28.70;28.50;;;;;;5047086;28;20578;-73
2022/09/04 14:35:01;;;;;;;6.33;2.47;;;28.80;28.80;;;;;;5047014;28;20432;-73
2022/09/04 14:38:05;;;;;;;3.20;2.10;;;28.60;28.70;;;;;;5047485;28;20535;-72
2022/09/04 14:41:02;;;;;;;2.93;2.13;;;28.60;29.00;;;;;;5040155;28;20823;-73
2022/09/04 14:44:02;;;;;;;3.07;2.13;;;28.50;29.10;;;;;;5045328;28;20932;-73
2022/09/04 14:46:59;;;;;;;3.00;2.20;;;28.40;29.30;;;;;;5051920;28;20549;-73
2022/09/04 14:49:47;;;;;;;3.37;2.10;;;28.30;28.90;;;;;;5045161;28;20456;-73
2022/09/04 14:52:41;;;;;;;3.63;2.40;;;28.50;30.00;;;;;;5047685;28;20431;-72
2022/09/04 14:55:30;;;;;;;3.30;2.00;;;28.60;29.60;;;;;;5043138;28;21218;-73
2022/09/04 14:58:23;;;;;;;4.03;2.00;;;28.60;28.90;;;;;;5043297;28;20448;-74
2022/09/04 15:01:18;;;;;;;5.40;2.13;;;28.60;28.40;;;;;;5043876;28;20444;-73
2022/09/04 15:04:11;;;;;;;3.10;1.77;;;28.70;28.80;;;;;;5046702;28;20463;-73
2022/09/04 15:06:58;;;;;;;4.63;1.93;;;28.80;28.40;;;;;;5045093;28;20483;-73
2022/09/04 15:09:48;;;;;;;4.57;2.47;;;28.80;28.40;;;;;;5040781;28;20867;-73
2022/09/04 15:12:39;;;;;;;3.63;2.10;;;28.80;28.50;;;;;;5040964;28;20949;-73
2022/09/04 15:15:31;;;;;;;4.93;1.90;;;28.80;28.90;;;;;;5038028;28;20479;-73
2022/09/04 15:18:26;;;;;;;4.50;2.40;;;28.90;28.20;;;;;;5038913;28;20913;-73
2022/09/04 15:21:18;;;;;;;3.93;1.97;;;28.70;27.30;;;;;;5043696;28;20809;-73
2022/09/04 15:24:13;;;;;;;2.83;1.70;;;28.60;28.20;;;;;;5043587;28;21835;-72
2022/09/04 15:27:11;;;;;;;3.13;2.00;;;28.70;28.00;;;;;;5040390;28;20479;-73
2022/09/04 15:30:06;;;;;;;4.07;2.20;;;28.50;26.90;;;;;;5039253;28;20447;-73
2022/09/04 15:33:04;;;;;;;3.47;1.80;;;28.50;28.30;;;;;;5042871;28;20484;-73
2022/09/04 15:36:03;;;;;;;4.73;2.13;;;28.60;28.20;;;;;;5040984;28;20805;-73
2022/09/04 15:38:54;;;;;;;3.40;1.93;;;28.30;27.80;;;;;;5036509;28;20828;-73
2022/09/04 15:41:44;;;;;;;2.73;1.67;;;28.30;27.50;;;;;;5040396;28;20522;-73
2022/09/04 15:44:39;;;;;;;4.00;2.27;;;28.40;28.00;;;;;;5041334;28;20456;-72
2022/09/04 15:47:50;;;;;;;3.17;1.70;;;28.50;27.20;;;;;;5039273;28;20889;-72
2022/09/04 15:50:49;;;;;;;3.90;2.10;;;28.50;28.30;;;;;;5044526;28;20452;-72